This is the latest recevied weather packets stored in our database for station/object N8RJC-13. If no packets are shown the sender has not sent any weather packets the latest 10 day(s).
| Time | Temp. | Humidity | Pressure | Rain* | Wind** | Luminosity | Snow |
|---|---|---|---|---|---|---|---|
| 1777394601 | 20.56° C | 77% | 990.3 hPa | 0 mm | 1.79 m/s, 307° | - | - |
| 1777394541 | 20.56° C | 77% | 990.3 hPa | 0 mm | 1.79 m/s, 307° | - | - |
| 1777394481 | 20.56° C | 77% | 990.3 hPa | 0 mm | 1.79 m/s, 307° | - | - |
| 1777394421 | 20.56° C | 76% | 990.2 hPa | 0 mm | 0.45 m/s, 224° | - | - |
| 1777394361 | 20.56° C | 76% | 990.2 hPa | 0 mm | 0.45 m/s, 224° | - | - |
| 1777394301 | 20.56° C | 76% | 990.2 hPa | 0 mm | 0.45 m/s, 224° | - | - |
| 1777394241 | 20.56° C | 76% | 990.2 hPa | 0 mm | 0.45 m/s, 224° | - | - |
| 1777394181 | 20.56° C | 76% | 990.2 hPa | 0 mm | 0.45 m/s, 224° | - | - |
| 1777394121 | 20° C | 79% | 990.4 hPa | 0 mm | 0.89 m/s, 274° | - | - |
| 1777394061 | 20° C | 79% | 990.4 hPa | 0 mm | 0.89 m/s, 274° | - | - |
| 1777394001 | 20° C | 79% | 990.4 hPa | 0 mm | 0.89 m/s, 274° | - | - |
| 1777393941 | 20° C | 79% | 990.4 hPa | 0 mm | 0.89 m/s, 274° | - | - |
| 1777393881 | 20° C | 79% | 990.4 hPa | 0 mm | 0.89 m/s, 274° | - | - |
| 1777393821 | 20° C | 79% | 990.3 hPa | 0 mm | 1.79 m/s, 287° | - | - |
| 1777393761 | 20° C | 79% | 990.3 hPa | 0 mm | 1.79 m/s, 287° | - | - |
| 1777393701 | 20° C | 79% | 990.3 hPa | 0 mm | 1.79 m/s, 287° | - | - |
| 1777393641 | 20° C | 79% | 990.3 hPa | 0 mm | 1.79 m/s, 287° | - | - |
| 1777393581 | 20° C | 79% | 990.3 hPa | 0 mm | 1.79 m/s, 287° | - | - |
| 1777393521 | 20.56° C | 77% | 990.1 hPa | 0 mm | 2.24 m/s, 280° | - | - |
| 1777393461 | 20.56° C | 77% | 990.1 hPa | 0 mm | 2.24 m/s, 280° | - | - |
| 1777393401 | 20.56° C | 77% | 990.1 hPa | 0 mm | 2.24 m/s, 280° | - | - |
| 1777393341 | 20.56° C | 77% | 990.1 hPa | 0 mm | 2.24 m/s, 280° | - | - |
| 1777393281 | 20.56° C | 77% | 990.1 hPa | 0 mm | 2.24 m/s, 280° | - | - |
| 1777393221 | 21.11° C | 78% | 990.2 hPa | 0 mm | 0.89 m/s, 281° | - | - |
| 1777393161 | 21.11° C | 78% | 990.2 hPa | 0 mm | 0.89 m/s, 281° | - | - |
* Rain latest hour (hover to see other rain measurements)
** Current wind speed in m/s (hover to see current wind gust speed)